sensor_id;sensor_type;location;lat;lon;timestamp;P1;durP1;ratioP1;P2;durP2;ratioP2
58071;SDS011;60383;46.626;18.866;2023-05-29T00:02:01;3.58;;;2.70;;
58071;SDS011;60383;46.626;18.866;2023-05-29T00:04:26;3.47;;;2.60;;
58071;SDS011;60383;46.626;18.866;2023-05-29T00:06:52;3.67;;;2.92;;
58071;SDS011;60383;46.626;18.866;2023-05-29T00:09:19;3.67;;;2.70;;
58071;SDS011;60383;46.626;18.866;2023-05-29T00:11:44;3.55;;;2.90;;
58071;SDS011;60383;46.626;18.866;2023-05-29T00:14:15;3.35;;;2.83;;
58071;SDS011;60383;46.626;18.866;2023-05-29T00:16:44;3.05;;;2.53;;
58071;SDS011;60383;46.626;18.866;2023-05-29T00:19:09;3.45;;;2.45;;
58071;SDS011;60383;46.626;18.866;2023-05-29T00:21:35;5.50;;;3.00;;
58071;SDS011;60383;46.626;18.866;2023-05-29T00:24:01;5.07;;;3.10;;
58071;SDS011;60383;46.626;18.866;2023-05-29T00:26:26;4.47;;;3.05;;
58071;SDS011;60383;46.626;18.866;2023-05-29T00:28:52;5.28;;;3.20;;
58071;SDS011;60383;46.626;18.866;2023-05-29T00:31:17;3.55;;;2.58;;
58071;SDS011;60383;46.626;18.866;2023-05-29T00:33:42;5.03;;;3.22;;
58071;SDS011;60383;46.626;18.866;2023-05-29T00:36:08;4.30;;;3.00;;
58071;SDS011;60383;46.626;18.866;2023-05-29T00:38:35;5.38;;;3.35;;
58071;SDS011;60383;46.626;18.866;2023-05-29T00:41:00;5.07;;;3.05;;
58071;SDS011;60383;46.626;18.866;2023-05-29T00:43:27;4.60;;;2.88;;
58071;SDS011;60383;46.626;18.866;2023-05-29T00:45:53;3.63;;;2.85;;
58071;SDS011;60383;46.626;18.866;2023-05-29T00:48:19;5.60;;;3.40;;
58071;SDS011;60383;46.626;18.866;2023-05-29T00:50:45;5.65;;;3.33;;
58071;SDS011;60383;46.626;18.866;2023-05-29T00:53:11;4.40;;;3.00;;
58071;SDS011;60383;46.626;18.866;2023-05-29T00:55:36;3.33;;;2.88;;
58071;SDS011;60383;46.626;18.866;2023-05-29T00:58:02;5.10;;;3.35;;
58071;SDS011;60383;46.626;18.866;2023-05-29T01:00:29;5.10;;;3.17;;
58071;SDS011;60383;46.626;18.866;2023-05-29T01:02:55;4.50;;;3.25;;
58071;SDS011;60383;46.626;18.866;2023-05-29T01:05:23;4.30;;;2.85;;
58071;SDS011;60383;46.626;18.866;2023-05-29T01:07:48;7.13;;;3.30;;
58071;SDS011;60383;46.626;18.866;2023-05-29T01:10:15;4.90;;;2.85;;
58071;SDS011;60383;46.626;18.866;2023-05-29T01:20:48;4.85;;;3.33;;
58071;SDS011;60383;46.626;18.866;2023-05-29T01:23:45;6.55;;;3.92;;
58071;SDS011;60383;46.626;18.866;2023-05-29T01:26:35;4.10;;;3.30;;
58071;SDS011;60383;46.626;18.866;2023-05-29T01:29:26;5.20;;;3.55;;
58071;SDS011;60383;46.626;18.866;2023-05-29T01:31:56;6.18;;;3.65;;
58071;SDS011;60383;46.626;18.866;2023-05-29T01:34:23;6.65;;;3.95;;
58071;SDS011;60383;46.626;18.866;2023-05-29T01:36:49;7.18;;;4.13;;
58071;SDS011;60383;46.626;18.866;2023-05-29T01:39:14;9.80;;;3.75;;
58071;SDS011;60383;46.626;18.866;2023-05-29T01:41:41;6.15;;;3.75;;
58071;SDS011;60383;46.626;18.866;2023-05-29T01:44:10;6.82;;;3.85;;
58071;SDS011;60383;46.626;18.866;2023-05-29T01:46:45;6.75;;;3.80;;
58071;SDS011;60383;46.626;18.866;2023-05-29T01:49:11;7.25;;;4.13;;
58071;SDS011;60383;46.626;18.866;2023-05-29T01:51:40;7.75;;;3.58;;
58071;SDS011;60383;46.626;18.866;2023-05-29T01:54:07;5.53;;;3.40;;
58071;SDS011;60383;46.626;18.866;2023-05-29T01:56:33;6.05;;;3.83;;
58071;SDS011;60383;46.626;18.866;2023-05-29T01:59:00;5.93;;;3.88;;
58071;SDS011;60383;46.626;18.866;2023-05-29T02:01:27;4.20;;;3.22;;
58071;SDS011;60383;46.626;18.866;2023-05-29T02:03:53;6.35;;;3.80;;
58071;SDS011;60383;46.626;18.866;2023-05-29T02:06:18;5.53;;;3.53;;
58071;SDS011;60383;46.626;18.866;2023-05-29T02:08:45;4.80;;;4.00;;
58071;SDS011;60383;46.626;18.866;2023-05-29T02:11:11;5.28;;;3.97;;
58071;SDS011;60383;46.626;18.866;2023-05-29T02:13:37;6.40;;;3.92;;
58071;SDS011;60383;46.626;18.866;2023-05-29T02:16:02;7.45;;;4.05;;
58071;SDS011;60383;46.626;18.866;2023-05-29T02:18:28;4.53;;;3.40;;
58071;SDS011;60383;46.626;18.866;2023-05-29T02:20:53;5.43;;;3.38;;
58071;SDS011;60383;46.626;18.866;2023-05-29T02:23:19;6.85;;;4.05;;
58071;SDS011;60383;46.626;18.866;2023-05-29T02:25:45;5.88;;;4.03;;
58071;SDS011;60383;46.626;18.866;2023-05-29T02:28:11;5.90;;;3.33;;
58071;SDS011;60383;46.626;18.866;2023-05-29T02:30:37;6.35;;;3.50;;
58071;SDS011;60383;46.626;18.866;2023-05-29T02:33:03;5.85;;;3.80;;
58071;SDS011;60383;46.626;18.866;2023-05-29T02:35:29;4.88;;;3.60;;
58071;SDS011;60383;46.626;18.866;2023-05-29T02:37:55;5.15;;;3.47;;
58071;SDS011;60383;46.626;18.866;2023-05-29T02:40:20;5.57;;;3.60;;
58071;SDS011;60383;46.626;18.866;2023-05-29T02:42:46;6.90;;;3.88;;
58071;SDS011;60383;46.626;18.866;2023-05-29T02:45:11;5.50;;;3.42;;
58071;SDS011;60383;46.626;18.866;2023-05-29T02:47:37;6.10;;;3.60;;
58071;SDS011;60383;46.626;18.866;2023-05-29T02:50:03;5.80;;;3.50;;
58071;SDS011;60383;46.626;18.866;2023-05-29T02:52:29;6.43;;;4.05;;
58071;SDS011;60383;46.626;18.866;2023-05-29T02:54:55;5.25;;;3.83;;
58071;SDS011;60383;46.626;18.866;2023-05-29T02:57:21;5.32;;;3.63;;
58071;SDS011;60383;46.626;18.866;2023-05-29T02:59:47;4.63;;;3.55;;
58071;SDS011;60383;46.626;18.866;2023-05-29T03:02:13;5.18;;;3.65;;
58071;SDS011;60383;46.626;18.866;2023-05-29T03:04:38;5.82;;;3.70;;
58071;SDS011;60383;46.626;18.866;2023-05-29T03:07:04;4.82;;;3.47;;
58071;SDS011;60383;46.626;18.866;2023-05-29T03:09:29;4.15;;;3.25;;
58071;SDS011;60383;46.626;18.866;2023-05-29T03:11:55;5.47;;;3.58;;
58071;SDS011;60383;46.626;18.866;2023-05-29T03:14:20;6.00;;;3.75;;
58071;SDS011;60383;46.626;18.866;2023-05-29T03:16:46;5.20;;;3.47;;
58071;SDS011;60383;46.626;18.866;2023-05-29T03:19:13;9.18;;;3.40;;
58071;SDS011;60383;46.626;18.866;2023-05-29T03:21:38;5.80;;;3.60;;
58071;SDS011;60383;46.626;18.866;2023-05-29T03:24:04;7.35;;;4.03;;
58071;SDS011;60383;46.626;18.866;2023-05-29T03:26:30;6.05;;;3.70;;
58071;SDS011;60383;46.626;18.866;2023-05-29T03:28:56;5.63;;;3.47;;
58071;SDS011;60383;46.626;18.866;2023-05-29T03:31:21;5.35;;;3.72;;
58071;SDS011;60383;46.626;18.866;2023-05-29T03:33:47;5.25;;;3.63;;
58071;SDS011;60383;46.626;18.866;2023-05-29T03:36:15;5.88;;;3.63;;
58071;SDS011;60383;46.626;18.866;2023-05-29T03:38:43;6.22;;;3.72;;
58071;SDS011;60383;46.626;18.866;2023-05-29T03:41:09;5.85;;;3.78;;
58071;SDS011;60383;46.626;18.866;2023-05-29T03:43:35;5.05;;;3.42;;
58071;SDS011;60383;46.626;18.866;2023-05-29T03:46:01;5.20;;;3.53;;
58071;SDS011;60383;46.626;18.866;2023-05-29T03:48:26;6.03;;;3.75;;
58071;SDS011;60383;46.626;18.866;2023-05-29T03:50:52;6.38;;;3.90;;
58071;SDS011;60383;46.626;18.866;2023-05-29T03:53:17;6.80;;;4.05;;
58071;SDS011;60383;46.626;18.866;2023-05-29T03:55:43;6.60;;;4.43;;
58071;SDS011;60383;46.626;18.866;2023-05-29T03:58:08;6.88;;;4.25;;
58071;SDS011;60383;46.626;18.866;2023-05-29T04:00:37;6.55;;;4.32;;
58071;SDS011;60383;46.626;18.866;2023-05-29T04:03:03;8.40;;;4.38;;
58071;SDS011;60383;46.626;18.866;2023-05-29T04:05:28;5.10;;;4.00;;
58071;SDS011;60383;46.626;18.866;2023-05-29T04:07:55;5.38;;;3.85;;
58071;SDS011;60383;46.626;18.866;2023-05-29T04:10:20;6.43;;;3.78;;
58071;SDS011;60383;46.626;18.866;2023-05-29T04:12:46;5.93;;;4.35;;
58071;SDS011;60383;46.626;18.866;2023-05-29T04:15:11;6.28;;;3.92;;
58071;SDS011;60383;46.626;18.866;2023-05-29T04:17:37;6.20;;;4.00;;
58071;SDS011;60383;46.626;18.866;2023-05-29T04:20:02;7.32;;;4.22;;
58071;SDS011;60383;46.626;18.866;2023-05-29T04:22:33;5.82;;;4.20;;
58071;SDS011;60383;46.626;18.866;2023-05-29T04:25:02;8.68;;;5.38;;
58071;SDS011;60383;46.626;18.866;2023-05-29T04:27:29;6.68;;;3.80;;
58071;SDS011;60383;46.626;18.866;2023-05-29T04:29:55;6.05;;;4.35;;
58071;SDS011;60383;46.626;18.866;2023-05-29T04:32:21;6.15;;;4.35;;
58071;SDS011;60383;46.626;18.866;2023-05-29T04:34:46;6.28;;;3.97;;
58071;SDS011;60383;46.626;18.866;2023-05-29T04:37:12;7.45;;;4.35;;
58071;SDS011;60383;46.626;18.866;2023-05-29T04:39:38;7.28;;;4.05;;
58071;SDS011;60383;46.626;18.866;2023-05-29T04:42:04;6.68;;;4.30;;
58071;SDS011;60383;46.626;18.866;2023-05-29T04:44:30;6.97;;;4.05;;
58071;SDS011;60383;46.626;18.866;2023-05-29T04:46:55;6.47;;;4.10;;
58071;SDS011;60383;46.626;18.866;2023-05-29T04:49:28;9.07;;;4.15;;
58071;SDS011;60383;46.626;18.866;2023-05-29T04:51:54;6.07;;;4.25;;
58071;SDS011;60383;46.626;18.866;2023-05-29T04:54:19;6.30;;;4.03;;
58071;SDS011;60383;46.626;18.866;2023-05-29T04:56:47;6.85;;;4.47;;
58071;SDS011;60383;46.626;18.866;2023-05-29T04:59:12;6.65;;;4.10;;
58071;SDS011;60383;46.626;18.866;2023-05-29T05:01:38;8.00;;;4.55;;
58071;SDS011;60383;46.626;18.866;2023-05-29T05:04:04;6.18;;;3.75;;
58071;SDS011;60383;46.626;18.866;2023-05-29T05:06:29;7.60;;;4.25;;
58071;SDS011;60383;46.626;18.866;2023-05-29T05:08:55;5.47;;;3.88;;
58071;SDS011;60383;46.626;18.866;2023-05-29T05:11:21;6.13;;;3.70;;
58071;SDS011;60383;46.626;18.866;2023-05-29T05:13:48;6.70;;;3.95;;
58071;SDS011;60383;46.626;18.866;2023-05-29T05:16:13;6.10;;;4.00;;
58071;SDS011;60383;46.626;18.866;2023-05-29T05:18:39;6.10;;;3.50;;
58071;SDS011;60383;46.626;18.866;2023-05-29T05:21:04;7.00;;;4.20;;
58071;SDS011;60383;46.626;18.866;2023-05-29T05:23:31;5.60;;;3.53;;
58071;SDS011;60383;46.626;18.866;2023-05-29T05:25:56;7.03;;;4.13;;
58071;SDS011;60383;46.626;18.866;2023-05-29T05:28:22;6.45;;;3.85;;
58071;SDS011;60383;46.626;18.866;2023-05-29T05:30:47;6.32;;;3.90;;
58071;SDS011;60383;46.626;18.866;2023-05-29T05:33:13;5.25;;;3.40;;
58071;SDS011;60383;46.626;18.866;2023-05-29T05:35:38;8.68;;;5.00;;
58071;SDS011;60383;46.626;18.866;2023-05-29T05:38:04;6.22;;;3.78;;
58071;SDS011;60383;46.626;18.866;2023-05-29T05:40:29;6.45;;;3.58;;
58071;SDS011;60383;46.626;18.866;2023-05-29T05:42:55;4.82;;;3.45;;
58071;SDS011;60383;46.626;18.866;2023-05-29T05:45:20;7.07;;;4.38;;
58071;SDS011;60383;46.626;18.866;2023-05-29T05:47:46;7.85;;;3.88;;
58071;SDS011;60383;46.626;18.866;2023-05-29T05:50:12;5.97;;;3.33;;
58071;SDS011;60383;46.626;18.866;2023-05-29T05:52:38;6.63;;;3.92;;
58071;SDS011;60383;46.626;18.866;2023-05-29T05:55:03;7.07;;;3.50;;
58071;SDS011;60383;46.626;18.866;2023-05-29T05:57:29;5.32;;;3.42;;
58071;SDS011;60383;46.626;18.866;2023-05-29T05:59:57;8.77;;;3.90;;
58071;SDS011;60383;46.626;18.866;2023-05-29T06:02:23;4.97;;;3.67;;
58071;SDS011;60383;46.626;18.866;2023-05-29T06:04:49;7.88;;;3.70;;
58071;SDS011;60383;46.626;18.866;2023-05-29T06:07:15;6.20;;;4.25;;
58071;SDS011;60383;46.626;18.866;2023-05-29T06:09:40;5.75;;;3.63;;
58071;SDS011;60383;46.626;18.866;2023-05-29T06:12:07;6.25;;;3.50;;
58071;SDS011;60383;46.626;18.866;2023-05-29T06:14:33;5.50;;;3.70;;
58071;SDS011;60383;46.626;18.866;2023-05-29T06:16:59;5.57;;;3.35;;
58071;SDS011;60383;46.626;18.866;2023-05-29T06:19:25;5.22;;;3.40;;
58071;SDS011;60383;46.626;18.866;2023-05-29T06:21:51;7.20;;;3.75;;
58071;SDS011;60383;46.626;18.866;2023-05-29T06:24:17;7.55;;;3.67;;
58071;SDS011;60383;46.626;18.866;2023-05-29T06:26:42;7.18;;;3.80;;
58071;SDS011;60383;46.626;18.866;2023-05-29T06:29:08;6.78;;;4.03;;
58071;SDS011;60383;46.626;18.866;2023-05-29T06:31:33;7.28;;;4.20;;
58071;SDS011;60383;46.626;18.866;2023-05-29T06:33:59;6.97;;;4.03;;
58071;SDS011;60383;46.626;18.866;2023-05-29T06:36:24;5.70;;;4.05;;
58071;SDS011;60383;46.626;18.866;2023-05-29T06:38:50;8.63;;;4.68;;
58071;SDS011;60383;46.626;18.866;2023-05-29T06:41:17;5.63;;;4.05;;
58071;SDS011;60383;46.626;18.866;2023-05-29T06:43:43;6.25;;;3.28;;
58071;SDS011;60383;46.626;18.866;2023-05-29T06:46:08;5.90;;;3.92;;
58071;SDS011;60383;46.626;18.866;2023-05-29T06:48:35;6.93;;;3.60;;
58071;SDS011;60383;46.626;18.866;2023-05-29T06:51:01;6.20;;;3.95;;
58071;SDS011;60383;46.626;18.866;2023-05-29T06:53:34;6.28;;;4.03;;
58071;SDS011;60383;46.626;18.866;2023-05-29T06:56:00;6.38;;;4.20;;
58071;SDS011;60383;46.626;18.866;2023-05-29T06:58:26;6.45;;;3.80;;
58071;SDS011;60383;46.626;18.866;2023-05-29T07:00:51;5.70;;;3.80;;
58071;SDS011;60383;46.626;18.866;2023-05-29T07:03:16;5.35;;;3.67;;
58071;SDS011;60383;46.626;18.866;2023-05-29T07:05:42;6.03;;;3.60;;
58071;SDS011;60383;46.626;18.866;2023-05-29T07:08:07;5.20;;;3.47;;
58071;SDS011;60383;46.626;18.866;2023-05-29T07:10:33;5.65;;;3.67;;
58071;SDS011;60383;46.626;18.866;2023-05-29T07:12:58;5.32;;;3.67;;
58071;SDS011;60383;46.626;18.866;2023-05-29T07:15:24;7.50;;;4.20;;
58071;SDS011;60383;46.626;18.866;2023-05-29T07:17:49;7.00;;;3.88;;
58071;SDS011;60383;46.626;18.866;2023-05-29T07:20:15;5.13;;;3.60;;
58071;SDS011;60383;46.626;18.866;2023-05-29T07:22:40;6.05;;;3.88;;
58071;SDS011;60383;46.626;18.866;2023-05-29T07:25:06;7.45;;;4.13;;
58071;SDS011;60383;46.626;18.866;2023-05-29T07:27:32;7.00;;;4.20;;
58071;SDS011;60383;46.626;18.866;2023-05-29T07:29:57;5.32;;;3.83;;
58071;SDS011;60383;46.626;18.866;2023-05-29T07:32:23;4.80;;;3.80;;
58071;SDS011;60383;46.626;18.866;2023-05-29T07:34:48;5.55;;;3.80;;
58071;SDS011;60383;46.626;18.866;2023-05-29T07:37:16;5.78;;;4.18;;
58071;SDS011;60383;46.626;18.866;2023-05-29T07:39:44;5.93;;;3.75;;
58071;SDS011;60383;46.626;18.866;2023-05-29T07:42:09;7.05;;;4.63;;
58071;SDS011;60383;46.626;18.866;2023-05-29T07:44:35;7.13;;;4.65;;
58071;SDS011;60383;46.626;18.866;2023-05-29T07:47:00;6.93;;;4.38;;
58071;SDS011;60383;46.626;18.866;2023-05-29T07:49:26;9.18;;;4.80;;
58071;SDS011;60383;46.626;18.866;2023-05-29T07:51:52;9.88;;;5.00;;
58071;SDS011;60383;46.626;18.866;2023-05-29T07:54:17;8.43;;;4.25;;
58071;SDS011;60383;46.626;18.866;2023-05-29T07:56:45;7.00;;;4.18;;
58071;SDS011;60383;46.626;18.866;2023-05-29T07:59:11;6.22;;;4.10;;
58071;SDS011;60383;46.626;18.866;2023-05-29T08:01:37;7.10;;;4.55;;
58071;SDS011;60383;46.626;18.866;2023-05-29T08:04:02;7.50;;;4.63;;
58071;SDS011;60383;46.626;18.866;2023-05-29T08:06:28;6.53;;;4.40;;
58071;SDS011;60383;46.626;18.866;2023-05-29T08:08:53;7.97;;;4.00;;
58071;SDS011;60383;46.626;18.866;2023-05-29T08:11:19;7.65;;;4.38;;
58071;SDS011;60383;46.626;18.866;2023-05-29T08:13:46;6.55;;;4.28;;
58071;SDS011;60383;46.626;18.866;2023-05-29T08:16:11;7.70;;;4.63;;
58071;SDS011;60383;46.626;18.866;2023-05-29T08:18:39;6.18;;;4.25;;
58071;SDS011;60383;46.626;18.866;2023-05-29T08:21:04;8.02;;;4.38;;
58071;SDS011;60383;46.626;18.866;2023-05-29T08:23:30;7.35;;;4.05;;
58071;SDS011;60383;46.626;18.866;2023-05-29T08:25:56;8.02;;;4.57;;
58071;SDS011;60383;46.626;18.866;2023-05-29T08:28:22;6.07;;;4.50;;
58071;SDS011;60383;46.626;18.866;2023-05-29T08:30:48;6.75;;;4.82;;
58071;SDS011;60383;46.626;18.866;2023-05-29T08:33:13;7.35;;;4.50;;
58071;SDS011;60383;46.626;18.866;2023-05-29T08:35:38;9.75;;;5.35;;
58071;SDS011;60383;46.626;18.866;2023-05-29T08:38:04;7.07;;;4.80;;
58071;SDS011;60383;46.626;18.866;2023-05-29T08:40:30;7.53;;;4.57;;
58071;SDS011;60383;46.626;18.866;2023-05-29T08:43:10;7.47;;;5.03;;
58071;SDS011;60383;46.626;18.866;2023-05-29T08:45:43;6.60;;;5.07;;
58071;SDS011;60383;46.626;18.866;2023-05-29T08:48:10;7.78;;;5.15;;
58071;SDS011;60383;46.626;18.866;2023-05-29T08:50:45;7.20;;;4.70;;
58071;SDS011;60383;46.626;18.866;2023-05-29T08:53:12;8.05;;;4.88;;
58071;SDS011;60383;46.626;18.866;2023-05-29T08:55:38;6.78;;;4.90;;
58071;SDS011;60383;46.626;18.866;2023-05-29T08:58:05;7.70;;;4.80;;
58071;SDS011;60383;46.626;18.866;2023-05-29T09:00:31;6.55;;;4.55;;
58071;SDS011;60383;46.626;18.866;2023-05-29T09:02:57;8.73;;;4.75;;
58071;SDS011;60383;46.626;18.866;2023-05-29T09:05:24;6.25;;;4.82;;
58071;SDS011;60383;46.626;18.866;2023-05-29T09:07:52;6.50;;;4.80;;
58071;SDS011;60383;46.626;18.866;2023-05-29T09:10:18;6.75;;;4.60;;
58071;SDS011;60383;46.626;18.866;2023-05-29T09:12:45;7.90;;;5.00;;
58071;SDS011;60383;46.626;18.866;2023-05-29T09:15:21;7.70;;;5.15;;
58071;SDS011;60383;46.626;18.866;2023-05-29T09:20:17;7.22;;;4.82;;
58071;SDS011;60383;46.626;18.866;2023-05-29T09:22:57;7.85;;;4.90;;
58071;SDS011;60383;46.626;18.866;2023-05-29T09:25:36;5.55;;;4.43;;
58071;SDS011;60383;46.626;18.866;2023-05-29T09:28:07;6.07;;;4.63;;
58071;SDS011;60383;46.626;18.866;2023-05-29T09:33:09;7.28;;;5.13;;
58071;SDS011;60383;46.626;18.866;2023-05-29T09:35:43;7.22;;;4.90;;
58071;SDS011;60383;46.626;18.866;2023-05-29T09:38:14;6.25;;;5.05;;
58071;SDS011;60383;46.626;18.866;2023-05-29T09:40:43;7.03;;;4.32;;
58071;SDS011;60383;46.626;18.866;2023-05-29T09:43:15;7.10;;;4.10;;
58071;SDS011;60383;46.626;18.866;2023-05-29T09:45:46;7.20;;;4.90;;
58071;SDS011;60383;46.626;18.866;2023-05-29T09:48:19;5.88;;;4.03;;
58071;SDS011;60383;46.626;18.866;2023-05-29T09:50:48;6.32;;;4.28;;
58071;SDS011;60383;46.626;18.866;2023-05-29T09:53:17;5.82;;;4.28;;
58071;SDS011;60383;46.626;18.866;2023-05-29T09:55:49;7.22;;;4.10;;
58071;SDS011;60383;46.626;18.866;2023-05-29T09:58:19;6.53;;;4.53;;
58071;SDS011;60383;46.626;18.866;2023-05-29T10:00:46;7.70;;;4.82;;
58071;SDS011;60383;46.626;18.866;2023-05-29T10:03:12;5.53;;;3.95;;
58071;SDS011;60383;46.626;18.866;2023-05-29T10:05:41;5.93;;;4.00;;
58071;SDS011;60383;46.626;18.866;2023-05-29T10:08:08;7.00;;;3.97;;
58071;SDS011;60383;46.626;18.866;2023-05-29T10:10:38;6.68;;;4.60;;
58071;SDS011;60383;46.626;18.866;2023-05-29T10:13:07;7.13;;;4.47;;
58071;SDS011;60383;46.626;18.866;2023-05-29T10:15:42;6.72;;;4.57;;
58071;SDS011;60383;46.626;18.866;2023-05-29T10:18:20;6.28;;;4.22;;
58071;SDS011;60383;46.626;18.866;2023-05-29T10:20:52;5.75;;;3.97;;
58071;SDS011;60383;46.626;18.866;2023-05-29T10:23:24;6.78;;;4.45;;
58071;SDS011;60383;46.626;18.866;2023-05-29T10:25:51;6.22;;;4.35;;
58071;SDS011;60383;46.626;18.866;2023-05-29T10:28:22;7.03;;;4.60;;
58071;SDS011;60383;46.626;18.866;2023-05-29T10:31:24;5.95;;;4.40;;
58071;SDS011;60383;46.626;18.866;2023-05-29T10:40:08;6.05;;;4.50;;
58071;SDS011;60383;46.626;18.866;2023-05-29T10:42:50;5.95;;;3.85;;
58071;SDS011;60383;46.626;18.866;2023-05-29T10:50:38;5.15;;;3.60;;
58071;SDS011;60383;46.626;18.866;2023-05-29T10:53:06;5.97;;;3.78;;
58071;SDS011;60383;46.626;18.866;2023-05-29T10:55:39;5.03;;;3.00;;
58071;SDS011;60383;46.626;18.866;2023-05-29T10:58:09;3.88;;;3.03;;
58071;SDS011;60383;46.626;18.866;2023-05-29T11:00:40;3.50;;;2.80;;
58071;SDS011;60383;46.626;18.866;2023-05-29T11:03:07;2.60;;;2.20;;
58071;SDS011;60383;46.626;18.866;2023-05-29T11:05:33;2.45;;;1.58;;
58071;SDS011;60383;46.626;18.866;2023-05-29T11:08:02;2.10;;;1.65;;
58071;SDS011;60383;46.626;18.866;2023-05-29T11:10:44;2.33;;;1.60;;
58071;SDS011;60383;46.626;18.866;2023-05-29T11:13:10;1.88;;;1.63;;
58071;SDS011;60383;46.626;18.866;2023-05-29T11:15:47;2.47;;;1.60;;
58071;SDS011;60383;46.626;18.866;2023-05-29T11:18:13;1.80;;;1.50;;
58071;SDS011;60383;46.626;18.866;2023-05-29T11:23:14;1.95;;;1.65;;
58071;SDS011;60383;46.626;18.866;2023-05-29T11:25:44;3.90;;;2.33;;
58071;SDS011;60383;46.626;18.866;2023-05-29T11:28:12;4.47;;;2.45;;
58071;SDS011;60383;46.626;18.866;2023-05-29T11:30:41;3.72;;;2.70;;
58071;SDS011;60383;46.626;18.866;2023-05-29T11:33:08;3.42;;;2.75;;
58071;SDS011;60383;46.626;18.866;2023-05-29T11:35:44;3.53;;;2.47;;
58071;SDS011;60383;46.626;18.866;2023-05-29T11:38:11;3.45;;;2.67;;
58071;SDS011;60383;46.626;18.866;2023-05-29T11:40:37;3.92;;;2.35;;
58071;SDS011;60383;46.626;18.866;2023-05-29T11:43:05;2.78;;;1.90;;
58071;SDS011;60383;46.626;18.866;2023-05-29T11:45:31;2.90;;;2.40;;
58071;SDS011;60383;46.626;18.866;2023-05-29T11:48:02;4.45;;;2.47;;
58071;SDS011;60383;46.626;18.866;2023-05-29T11:50:29;3.13;;;2.33;;
58071;SDS011;60383;46.626;18.866;2023-05-29T11:52:59;3.22;;;2.00;;
58071;SDS011;60383;46.626;18.866;2023-05-29T11:55:25;2.83;;;2.10;;
58071;SDS011;60383;46.626;18.866;2023-05-29T11:57:58;2.97;;;2.35;;
58071;SDS011;60383;46.626;18.866;2023-05-29T12:00:25;3.10;;;2.40;;
58071;SDS011;60383;46.626;18.866;2023-05-29T12:02:57;2.63;;;1.92;;
58071;SDS011;60383;46.626;18.866;2023-05-29T12:05:23;2.40;;;2.20;;
58071;SDS011;60383;46.626;18.866;2023-05-29T12:07:51;3.08;;;2.03;;
58071;SDS011;60383;46.626;18.866;2023-05-29T12:10:19;2.85;;;2.20;;
58071;SDS011;60383;46.626;18.866;2023-05-29T12:12:55;2.53;;;2.03;;
58071;SDS011;60383;46.626;18.866;2023-05-29T12:15:23;2.65;;;2.28;;
58071;SDS011;60383;46.626;18.866;2023-05-29T12:17:49;3.28;;;2.00;;
58071;SDS011;60383;46.626;18.866;2023-05-29T12:20:16;2.40;;;2.20;;
58071;SDS011;60383;46.626;18.866;2023-05-29T12:22:43;5.72;;;2.50;;
58071;SDS011;60383;46.626;18.866;2023-05-29T12:25:16;3.80;;;2.70;;
58071;SDS011;60383;46.626;18.866;2023-05-29T12:27:43;4.47;;;2.72;;
58071;SDS011;60383;46.626;18.866;2023-05-29T12:30:12;2.75;;;2.33;;
58071;SDS011;60383;46.626;18.866;2023-05-29T12:32:40;4.32;;;2.95;;
58071;SDS011;60383;46.626;18.866;2023-05-29T12:35:14;3.15;;;2.78;;
58071;SDS011;60383;46.626;18.866;2023-05-29T12:37:45;3.83;;;2.80;;
58071;SDS011;60383;46.626;18.866;2023-05-29T12:40:19;3.20;;;2.67;;
58071;SDS011;60383;46.626;18.866;2023-05-29T12:42:46;3.60;;;2.90;;
58071;SDS011;60383;46.626;18.866;2023-05-29T12:45:12;4.07;;;2.83;;
58071;SDS011;60383;46.626;18.866;2023-05-29T12:48:12;4.60;;;2.70;;
58071;SDS011;60383;46.626;18.866;2023-05-29T12:50:35;4.57;;;2.90;;
58071;SDS011;60383;46.626;18.866;2023-05-29T12:55:35;3.38;;;2.58;;
58071;SDS011;60383;46.626;18.866;2023-05-29T12:58:05;3.08;;;2.63;;
58071;SDS011;60383;46.626;18.866;2023-05-29T13:00:32;4.32;;;2.85;;
58071;SDS011;60383;46.626;18.866;2023-05-29T13:03:03;3.47;;;2.92;;
58071;SDS011;60383;46.626;18.866;2023-05-29T13:05:29;4.00;;;2.63;;
58071;SDS011;60383;46.626;18.866;2023-05-29T13:07:55;3.38;;;2.70;;
58071;SDS011;60383;46.626;18.866;2023-05-29T13:10:22;3.28;;;2.63;;
58071;SDS011;60383;46.626;18.866;2023-05-29T13:12:48;3.17;;;2.80;;
58071;SDS011;60383;46.626;18.866;2023-05-29T13:15:20;3.38;;;2.70;;
58071;SDS011;60383;46.626;18.866;2023-05-29T13:17:46;4.13;;;3.05;;
58071;SDS011;60383;46.626;18.866;2023-05-29T13:20:12;3.88;;;2.85;;
58071;SDS011;60383;46.626;18.866;2023-05-29T13:22:38;3.60;;;2.90;;
58071;SDS011;60383;46.626;18.866;2023-05-29T13:25:05;4.88;;;3.20;;
58071;SDS011;60383;46.626;18.866;2023-05-29T13:27:33;3.47;;;2.60;;
58071;SDS011;60383;46.626;18.866;2023-05-29T13:30:02;3.88;;;2.72;;
58071;SDS011;60383;46.626;18.866;2023-05-29T13:32:29;3.53;;;2.75;;
58071;SDS011;60383;46.626;18.866;2023-05-29T13:34:54;2.97;;;2.50;;
58071;SDS011;60383;46.626;18.866;2023-05-29T13:37:20;3.22;;;2.60;;
58071;SDS011;60383;46.626;18.866;2023-05-29T13:39:46;2.55;;;2.20;;
58071;SDS011;60383;46.626;18.866;2023-05-29T13:42:12;3.63;;;2.47;;
58071;SDS011;60383;46.626;18.866;2023-05-29T13:44:37;3.13;;;2.40;;
58071;SDS011;60383;46.626;18.866;2023-05-29T13:47:03;3.38;;;2.17;;
58071;SDS011;60383;46.626;18.866;2023-05-29T13:49:29;3.72;;;2.72;;
58071;SDS011;60383;46.626;18.866;2023-05-29T13:51:55;3.38;;;2.40;;
58071;SDS011;60383;46.626;18.866;2023-05-29T13:54:20;3.60;;;2.70;;
58071;SDS011;60383;46.626;18.866;2023-05-29T13:56:47;4.55;;;2.83;;
58071;SDS011;60383;46.626;18.866;2023-05-29T13:59:12;2.90;;;2.60;;
58071;SDS011;60383;46.626;18.866;2023-05-29T14:01:38;3.40;;;2.70;;
58071;SDS011;60383;46.626;18.866;2023-05-29T14:04:03;2.70;;;1.83;;
58071;SDS011;60383;46.626;18.866;2023-05-29T14:06:29;3.50;;;2.00;;
58071;SDS011;60383;46.626;18.866;2023-05-29T14:08:55;2.30;;;2.00;;
58071;SDS011;60383;46.626;18.866;2023-05-29T14:11:21;3.05;;;2.30;;
58071;SDS011;60383;46.626;18.866;2023-05-29T14:13:46;3.85;;;2.33;;
58071;SDS011;60383;46.626;18.866;2023-05-29T14:16:12;2.55;;;2.13;;
58071;SDS011;60383;46.626;18.866;2023-05-29T14:18:39;2.40;;;2.00;;
58071;SDS011;60383;46.626;18.866;2023-05-29T14:21:04;2.15;;;1.92;;
58071;SDS011;60383;46.626;18.866;2023-05-29T14:23:30;2.92;;;2.10;;
58071;SDS011;60383;46.626;18.866;2023-05-29T14:25:55;1.75;;;1.55;;
58071;SDS011;60383;46.626;18.866;2023-05-29T14:28:21;2.17;;;1.73;;
58071;SDS011;60383;46.626;18.866;2023-05-29T14:30:46;2.97;;;1.90;;
58071;SDS011;60383;46.626;18.866;2023-05-29T14:33:12;1.85;;;1.67;;
58071;SDS011;60383;46.626;18.866;2023-05-29T14:35:37;1.95;;;1.70;;
58071;SDS011;60383;46.626;18.866;2023-05-29T14:38:03;2.05;;;1.85;;
58071;SDS011;60383;46.626;18.866;2023-05-29T14:40:28;1.73;;;1.58;;
58071;SDS011;60383;46.626;18.866;2023-05-29T14:42:56;2.58;;;1.70;;
58071;SDS011;60383;46.626;18.866;2023-05-29T14:45:21;2.97;;;2.10;;
58071;SDS011;60383;46.626;18.866;2023-05-29T14:47:47;1.80;;;1.58;;
58071;SDS011;60383;46.626;18.866;2023-05-29T14:50:12;2.13;;;1.90;;
58071;SDS011;60383;46.626;18.866;2023-05-29T14:52:40;2.10;;;1.90;;
58071;SDS011;60383;46.626;18.866;2023-05-29T14:55:06;2.00;;;1.75;;
58071;SDS011;60383;46.626;18.866;2023-05-29T14:57:32;2.08;;;1.67;;
58071;SDS011;60383;46.626;18.866;2023-05-29T14:59:59;2.30;;;1.80;;
58071;SDS011;60383;46.626;18.866;2023-05-29T15:02:25;2.38;;;1.95;;
58071;SDS011;60383;46.626;18.866;2023-05-29T15:04:50;1.88;;;1.50;;